Hauptseite
METAR-TAF:

METAR-TAF

Flughäfen :

Flugplatz Schwäbisch Hall-Hessental (Adolf Würth Airport)

Schwäbisch Hall, Deutschland

Breite: 49-07-06N, Länge: 9-47-02E, Höhe: 398 m

Beobachtung

Neuester Wetterbericht von vor 9 Stunden und 5 Minuten, um 19:20 UTC
Wind 3 kt aus Nord/Nordwest
Temperatur 8°C
Luftfeuchtigkeit 76%
Luftdruck 1022 hPa
Sichtweite: 7000 m

METAR: EDTY 241920Z 33003KT 7000 NSC 08/04 Q1022

Zeit: 05:25 (04:25 UTC)

Prognose

Neuester Wetterbericht von vor 11 Stunden und 25 Minuten, um 17:00 UTC
Gültige Prognose vom 24 um 18 UTC bis 25 um 03 UTC
Wind 4 kt aus West/Nordwest
Sichtweite: 9000 m
Aufgelockert bewölkt in der Höhe von 4000 ft

TAF: EDTY 241700Z 2418/2503 30004KT 9000 SCT040

Wetterbeobachtungen und Prognosen von mehr als 4000 Flughäfen (METAR und TAF Bericht).

Die verfügbaren Stationen werden durch gelbe und rote Markierungen auf der Karte dargestellt.

Führen Sie die Maus auf sie, um den Namen der Station zu sehen.

Darauf klicken, um die Beobachtung von Wetterbeobachtungen und Prognosen zu sehen.

Um die Karte zu ändern : klicken Sie auf den grünen Tasten mit einem schwarzen Kreuz Zum Vergrößern, auf den grünen Button mit einem Gedankenstrich zu verkleinern, oder auf die grünen Pfeile für benachbarte Karten.


METAR-TAF: